sensor_id;sensor_type;location;lat;lon;timestamp;temperature;humidity
75442;DHT22;64019;48.312;14.226;2023-06-14T00:02:03;14.10;99.90
75442;DHT22;64019;48.312;14.226;2023-06-14T00:04:30;14.10;99.90
75442;DHT22;64019;48.312;14.226;2023-06-14T00:06:56;14.00;99.90
75442;DHT22;64019;48.312;14.226;2023-06-14T00:09:22;14.00;99.90
75442;DHT22;64019;48.312;14.226;2023-06-14T00:11:48;14.00;99.90
75442;DHT22;64019;48.312;14.226;2023-06-14T00:14:14;14.00;99.90
75442;DHT22;64019;48.312;14.226;2023-06-14T00:16:40;14.00;99.90
75442;DHT22;64019;48.312;14.226;2023-06-14T00:19:08;14.00;99.90
75442;DHT22;64019;48.312;14.226;2023-06-14T00:21:36;14.00;99.90
75442;DHT22;64019;48.312;14.226;2023-06-14T00:24:02;13.80;99.90
75442;DHT22;64019;48.312;14.226;2023-06-14T00:26:27;13.80;99.90
75442;DHT22;64019;48.312;14.226;2023-06-14T00:28:54;13.80;99.90
75442;DHT22;64019;48.312;14.226;2023-06-14T00:31:20;13.70;99.90
75442;DHT22;64019;48.312;14.226;2023-06-14T00:33:46;13.70;99.90
75442;DHT22;64019;48.312;14.226;2023-06-14T00:36:12;13.60;99.90
75442;DHT22;64019;48.312;14.226;2023-06-14T00:38:37;13.50;99.90
75442;DHT22;64019;48.312;14.226;2023-06-14T00:41:03;13.40;99.90
75442;DHT22;64019;48.312;14.226;2023-06-14T00:43:29;13.30;99.90
75442;DHT22;64019;48.312;14.226;2023-06-14T00:45:55;13.20;99.90
75442;DHT22;64019;48.312;14.226;2023-06-14T00:48:21;13.30;99.90
75442;DHT22;64019;48.312;14.226;2023-06-14T00:50:48;13.30;99.90
75442;DHT22;64019;48.312;14.226;2023-06-14T00:53:16;13.20;99.90
75442;DHT22;64019;48.312;14.226;2023-06-14T00:55:43;13.20;99.90
75442;DHT22;64019;48.312;14.226;2023-06-14T00:58:10;13.10;99.90
75442;DHT22;64019;48.312;14.226;2023-06-14T01:00:36;13.10;99.90
75442;DHT22;64019;48.312;14.226;2023-06-14T01:03:02;13.00;99.90
75442;DHT22;64019;48.312;14.226;2023-06-14T01:05:29;12.90;99.90
75442;DHT22;64019;48.312;14.226;2023-06-14T01:11:12;12.80;99.90
75442;DHT22;64019;48.312;14.226;2023-06-14T01:13:40;12.80;99.90
75442;DHT22;64019;48.312;14.226;2023-06-14T01:16:08;12.80;99.90
75442;DHT22;64019;48.312;14.226;2023-06-14T01:18:34;12.70;99.90
75442;DHT22;64019;48.312;14.226;2023-06-14T01:21:01;12.70;99.90
75442;DHT22;64019;48.312;14.226;2023-06-14T01:23:31;12.60;99.90
75442;DHT22;64019;48.312;14.226;2023-06-14T01:25:58;12.50;99.90
75442;DHT22;64019;48.312;14.226;2023-06-14T01:28:25;12.50;99.90
75442;DHT22;64019;48.312;14.226;2023-06-14T01:31:00;12.50;99.90
75442;DHT22;64019;48.312;14.226;2023-06-14T01:33:31;12.40;99.90
75442;DHT22;64019;48.312;14.226;2023-06-14T01:35:58;12.50;99.90
75442;DHT22;64019;48.312;14.226;2023-06-14T01:38:27;12.40;99.90
75442;DHT22;64019;48.312;14.226;2023-06-14T01:40:56;12.40;99.90
75442;DHT22;64019;48.312;14.226;2023-06-14T01:43:23;12.20;99.90
75442;DHT22;64019;48.312;14.226;2023-06-14T01:45:51;12.10;99.90
75442;DHT22;64019;48.312;14.226;2023-06-14T01:48:19;12.10;99.90
75442;DHT22;64019;48.312;14.226;2023-06-14T01:50:45;12.10;99.90
75442;DHT22;64019;48.312;14.226;2023-06-14T01:53:11;12.10;99.90
75442;DHT22;64019;48.312;14.226;2023-06-14T01:55:37;12.10;99.90
75442;DHT22;64019;48.312;14.226;2023-06-14T01:58:04;12.10;99.90
75442;DHT22;64019;48.312;14.226;2023-06-14T02:00:30;12.10;99.90
75442;DHT22;64019;48.312;14.226;2023-06-14T02:02:56;12.10;99.90
75442;DHT22;64019;48.312;14.226;2023-06-14T02:05:22;12.10;99.90
75442;DHT22;64019;48.312;14.226;2023-06-14T02:07:47;12.10;99.90
75442;DHT22;64019;48.312;14.226;2023-06-14T02:10:14;12.00;99.90
75442;DHT22;64019;48.312;14.226;2023-06-14T02:12:40;12.00;99.90
75442;DHT22;64019;48.312;14.226;2023-06-14T02:15:07;11.90;99.90
75442;DHT22;64019;48.312;14.226;2023-06-14T02:17:33;11.90;99.90
75442;DHT22;64019;48.312;14.226;2023-06-14T02:19:59;11.90;99.90
75442;DHT22;64019;48.312;14.226;2023-06-14T02:22:25;11.90;99.90
75442;DHT22;64019;48.312;14.226;2023-06-14T02:24:50;11.80;99.90
75442;DHT22;64019;48.312;14.226;2023-06-14T02:27:16;11.80;99.90
75442;DHT22;64019;48.312;14.226;2023-06-14T02:29:42;11.80;99.90
75442;DHT22;64019;48.312;14.226;2023-06-14T02:32:08;11.70;99.90
75442;DHT22;64019;48.312;14.226;2023-06-14T02:34:34;11.70;99.90
75442;DHT22;64019;48.312;14.226;2023-06-14T02:37:00;11.60;99.90
75442;DHT22;64019;48.312;14.226;2023-06-14T02:39:28;11.50;99.90
75442;DHT22;64019;48.312;14.226;2023-06-14T02:41:54;11.50;99.90
75442;DHT22;64019;48.312;14.226;2023-06-14T02:44:20;11.50;99.90
75442;DHT22;64019;48.312;14.226;2023-06-14T02:46:49;11.50;99.90
75442;DHT22;64019;48.312;14.226;2023-06-14T02:49:15;11.50;99.90
75442;DHT22;64019;48.312;14.226;2023-06-14T02:51:40;11.40;99.90
75442;DHT22;64019;48.312;14.226;2023-06-14T02:54:06;11.40;99.90
75442;DHT22;64019;48.312;14.226;2023-06-14T02:56:31;11.50;99.90
75442;DHT22;64019;48.312;14.226;2023-06-14T02:58:57;11.40;99.90
75442;DHT22;64019;48.312;14.226;2023-06-14T03:01:26;11.40;99.90
75442;DHT22;64019;48.312;14.226;2023-06-14T03:04:00;11.40;99.90
75442;DHT22;64019;48.312;14.226;2023-06-14T03:06:28;11.30;99.90
75442;DHT22;64019;48.312;14.226;2023-06-14T03:08:59;11.20;99.90
75442;DHT22;64019;48.312;14.226;2023-06-14T03:11:26;11.20;99.90
75442;DHT22;64019;48.312;14.226;2023-06-14T03:13:52;11.30;99.90
75442;DHT22;64019;48.312;14.226;2023-06-14T03:16:19;11.30;99.90
75442;DHT22;64019;48.312;14.226;2023-06-14T03:18:51;11.30;99.90
75442;DHT22;64019;48.312;14.226;2023-06-14T03:21:18;11.30;99.90
75442;DHT22;64019;48.312;14.226;2023-06-14T03:23:44;11.30;99.90
75442;DHT22;64019;48.312;14.226;2023-06-14T03:26:10;11.30;99.90
75442;DHT22;64019;48.312;14.226;2023-06-14T03:28:40;11.20;99.90
75442;DHT22;64019;48.312;14.226;2023-06-14T03:31:07;11.20;99.90
75442;DHT22;64019;48.312;14.226;2023-06-14T03:33:34;11.20;99.90
75442;DHT22;64019;48.312;14.226;2023-06-14T03:36:00;11.30;99.90
75442;DHT22;64019;48.312;14.226;2023-06-14T03:38:25;11.40;99.90
75442;DHT22;64019;48.312;14.226;2023-06-14T03:40:51;11.50;99.90
75442;DHT22;64019;48.312;14.226;2023-06-14T03:43:17;11.70;99.90
75442;DHT22;64019;48.312;14.226;2023-06-14T03:45:42;11.80;99.90
75442;DHT22;64019;48.312;14.226;2023-06-14T03:48:09;11.80;99.90
75442;DHT22;64019;48.312;14.226;2023-06-14T03:50:35;11.80;99.90
75442;DHT22;64019;48.312;14.226;2023-06-14T03:53:03;11.80;99.90
75442;DHT22;64019;48.312;14.226;2023-06-14T03:55:29;11.80;99.90
75442;DHT22;64019;48.312;14.226;2023-06-14T03:57:57;11.80;99.90
75442;DHT22;64019;48.312;14.226;2023-06-14T04:00:23;11.80;99.90
75442;DHT22;64019;48.312;14.226;2023-06-14T04:02:49;11.80;99.90
75442;DHT22;64019;48.312;14.226;2023-06-14T04:05:15;11.90;99.90
75442;DHT22;64019;48.312;14.226;2023-06-14T04:07:46;11.80;99.90
75442;DHT22;64019;48.312;14.226;2023-06-14T04:10:15;11.90;99.90
75442;DHT22;64019;48.312;14.226;2023-06-14T04:12:41;11.90;99.90
75442;DHT22;64019;48.312;14.226;2023-06-14T04:15:08;12.00;99.90
75442;DHT22;64019;48.312;14.226;2023-06-14T04:17:35;12.10;99.90
75442;DHT22;64019;48.312;14.226;2023-06-14T04:20:02;12.10;99.90
75442;DHT22;64019;48.312;14.226;2023-06-14T04:22:30;12.10;99.90
75442;DHT22;64019;48.312;14.226;2023-06-14T04:24:57;12.20;99.90
75442;DHT22;64019;48.312;14.226;2023-06-14T04:27:28;12.30;99.90
75442;DHT22;64019;48.312;14.226;2023-06-14T04:29:56;12.30;99.90
75442;DHT22;64019;48.312;14.226;2023-06-14T04:32:31;12.40;99.90
75442;DHT22;64019;48.312;14.226;2023-06-14T04:35:08;12.40;99.90
75442;DHT22;64019;48.312;14.226;2023-06-14T04:37:35;12.50;99.90
75442;DHT22;64019;48.312;14.226;2023-06-14T04:40:05;12.60;99.90
75442;DHT22;64019;48.312;14.226;2023-06-14T04:42:32;12.70;99.90
75442;DHT22;64019;48.312;14.226;2023-06-14T04:44:58;12.80;99.90
75442;DHT22;64019;48.312;14.226;2023-06-14T04:47:24;12.90;99.90
75442;DHT22;64019;48.312;14.226;2023-06-14T04:49:55;13.00;99.90
75442;DHT22;64019;48.312;14.226;2023-06-14T04:52:22;13.20;99.90
75442;DHT22;64019;48.312;14.226;2023-06-14T04:54:48;13.30;99.90
75442;DHT22;64019;48.312;14.226;2023-06-14T04:57:14;13.40;99.90
75442;DHT22;64019;48.312;14.226;2023-06-14T04:59:43;13.50;99.90
75442;DHT22;64019;48.312;14.226;2023-06-14T05:02:10;13.60;99.90
75442;DHT22;64019;48.312;14.226;2023-06-14T05:04:37;13.60;99.90
75442;DHT22;64019;48.312;14.226;2023-06-14T05:07:09;13.70;99.90
75442;DHT22;64019;48.312;14.226;2023-06-14T05:09:36;13.80;99.90
75442;DHT22;64019;48.312;14.226;2023-06-14T05:12:02;14.00;99.90
75442;DHT22;64019;48.312;14.226;2023-06-14T05:14:28;14.00;99.90
75442;DHT22;64019;48.312;14.226;2023-06-14T05:16:54;14.40;99.90
75442;DHT22;64019;48.312;14.226;2023-06-14T05:19:19;15.40;99.90
75442;DHT22;64019;48.312;14.226;2023-06-14T05:21:47;16.00;99.90
75442;DHT22;64019;48.312;14.226;2023-06-14T05:24:13;16.10;99.90
75442;DHT22;64019;48.312;14.226;2023-06-14T05:26:39;16.00;99.90
75442;DHT22;64019;48.312;14.226;2023-06-14T05:29:05;15.80;99.90
75442;DHT22;64019;48.312;14.226;2023-06-14T05:31:31;15.60;99.90
75442;DHT22;64019;48.312;14.226;2023-06-14T05:33:57;15.50;99.90
75442;DHT22;64019;48.312;14.226;2023-06-14T05:36:22;15.20;99.90
75442;DHT22;64019;48.312;14.226;2023-06-14T05:38:48;15.10;99.90
75442;DHT22;64019;48.312;14.226;2023-06-14T05:41:14;15.10;99.90
75442;DHT22;64019;48.312;14.226;2023-06-14T05:43:40;15.10;99.90
75442;DHT22;64019;48.312;14.226;2023-06-14T05:46:05;15.10;99.90
75442;DHT22;64019;48.312;14.226;2023-06-14T05:48:31;15.10;99.90
75442;DHT22;64019;48.312;14.226;2023-06-14T05:50:58;15.10;99.90
75442;DHT22;64019;48.312;14.226;2023-06-14T05:53:24;15.30;99.90
75442;DHT22;64019;48.312;14.226;2023-06-14T05:55:50;15.30;99.90
75442;DHT22;64019;48.312;14.226;2023-06-14T05:58:19;15.50;99.90
75442;DHT22;64019;48.312;14.226;2023-06-14T06:00:45;15.60;99.90
75442;DHT22;64019;48.312;14.226;2023-06-14T06:03:11;15.70;99.90
75442;DHT22;64019;48.312;14.226;2023-06-14T06:05:38;15.90;99.90
75442;DHT22;64019;48.312;14.226;2023-06-14T06:08:04;16.10;99.90
75442;DHT22;64019;48.312;14.226;2023-06-14T06:10:30;16.00;99.90
75442;DHT22;64019;48.312;14.226;2023-06-14T06:12:56;16.10;99.90
75442;DHT22;64019;48.312;14.226;2023-06-14T06:15:21;16.20;99.90
75442;DHT22;64019;48.312;14.226;2023-06-14T06:17:47;16.30;99.90
75442;DHT22;64019;48.312;14.226;2023-06-14T06:20:13;16.40;99.90
75442;DHT22;64019;48.312;14.226;2023-06-14T06:22:39;16.40;99.90
75442;DHT22;64019;48.312;14.226;2023-06-14T06:25:05;16.50;99.90
75442;DHT22;64019;48.312;14.226;2023-06-14T06:27:32;16.50;99.90
75442;DHT22;64019;48.312;14.226;2023-06-14T06:29:57;16.60;99.90
75442;DHT22;64019;48.312;14.226;2023-06-14T06:32:23;16.70;99.90
75442;DHT22;64019;48.312;14.226;2023-06-14T06:34:49;16.80;99.90
75442;DHT22;64019;48.312;14.226;2023-06-14T06:37:15;16.90;99.90
75442;DHT22;64019;48.312;14.226;2023-06-14T06:39:41;17.00;99.90
75442;DHT22;64019;48.312;14.226;2023-06-14T06:42:06;17.30;99.90
75442;DHT22;64019;48.312;14.226;2023-06-14T06:44:32;17.50;99.90
75442;DHT22;64019;48.312;14.226;2023-06-14T06:46:58;17.60;99.90
75442;DHT22;64019;48.312;14.226;2023-06-14T06:49:24;17.60;99.90
75442;DHT22;64019;48.312;14.226;2023-06-14T06:52:02;17.60;99.90
75442;DHT22;64019;48.312;14.226;2023-06-14T06:54:28;17.70;99.90
75442;DHT22;64019;48.312;14.226;2023-06-14T06:56:54;17.80;99.90
75442;DHT22;64019;48.312;14.226;2023-06-14T06:59:20;18.00;99.90
75442;DHT22;64019;48.312;14.226;2023-06-14T07:01:46;18.10;99.90
75442;DHT22;64019;48.312;14.226;2023-06-14T07:04:12;18.20;99.90
75442;DHT22;64019;48.312;14.226;2023-06-14T07:06:38;18.20;99.90
75442;DHT22;64019;48.312;14.226;2023-06-14T07:09:04;18.10;99.90
75442;DHT22;64019;48.312;14.226;2023-06-14T07:11:33;18.20;99.90
75442;DHT22;64019;48.312;14.226;2023-06-14T07:13:59;18.30;99.90
75442;DHT22;64019;48.312;14.226;2023-06-14T07:16:25;18.30;99.90
75442;DHT22;64019;48.312;14.226;2023-06-14T07:18:51;18.30;99.90
75442;DHT22;64019;48.312;14.226;2023-06-14T07:21:17;18.20;99.90
75442;DHT22;64019;48.312;14.226;2023-06-14T07:23:43;18.30;99.90
75442;DHT22;64019;48.312;14.226;2023-06-14T07:26:09;18.30;99.90
75442;DHT22;64019;48.312;14.226;2023-06-14T07:28:34;18.40;99.90
75442;DHT22;64019;48.312;14.226;2023-06-14T07:31:01;18.60;99.90
75442;DHT22;64019;48.312;14.226;2023-06-14T07:33:26;18.60;99.90
75442;DHT22;64019;48.312;14.226;2023-06-14T07:35:52;18.60;99.90
75442;DHT22;64019;48.312;14.226;2023-06-14T07:38:18;18.70;99.90
75442;DHT22;64019;48.312;14.226;2023-06-14T07:40:44;18.70;99.90
75442;DHT22;64019;48.312;14.226;2023-06-14T07:43:10;18.70;99.90
75442;DHT22;64019;48.312;14.226;2023-06-14T07:45:37;18.70;99.90
75442;DHT22;64019;48.312;14.226;2023-06-14T07:48:02;18.90;99.90
75442;DHT22;64019;48.312;14.226;2023-06-14T07:50:28;19.00;99.90
75442;DHT22;64019;48.312;14.226;2023-06-14T07:52:54;19.10;99.90
75442;DHT22;64019;48.312;14.226;2023-06-14T07:55:20;19.20;99.90
75442;DHT22;64019;48.312;14.226;2023-06-14T07:57:46;19.20;99.90
75442;DHT22;64019;48.312;14.226;2023-06-14T08:00:12;19.30;99.90
75442;DHT22;64019;48.312;14.226;2023-06-14T08:02:43;19.30;99.90
75442;DHT22;64019;48.312;14.226;2023-06-14T08:05:10;19.40;99.90
75442;DHT22;64019;48.312;14.226;2023-06-14T08:07:37;19.60;99.90
75442;DHT22;64019;48.312;14.226;2023-06-14T08:10:07;19.60;99.90
75442;DHT22;64019;48.312;14.226;2023-06-14T08:12:33;19.50;99.90
75442;DHT22;64019;48.312;14.226;2023-06-14T08:15:00;19.50;99.90
75442;DHT22;64019;48.312;14.226;2023-06-14T08:17:26;19.60;99.90
75442;DHT22;64019;48.312;14.226;2023-06-14T08:19:52;19.60;99.90
75442;DHT22;64019;48.312;14.226;2023-06-14T09:01:01;20.10;99.90
75442;DHT22;64019;48.312;14.226;2023-06-14T09:03:27;20.70;99.90
75442;DHT22;64019;48.312;14.226;2023-06-14T09:05:59;20.80;99.90
75442;DHT22;64019;48.312;14.226;2023-06-14T09:08:26;20.90;99.90
75442;DHT22;64019;48.312;14.226;2023-06-14T09:10:56;21.20;99.90
75442;DHT22;64019;48.312;14.226;2023-06-14T09:13:22;21.30;99.90
75442;DHT22;64019;48.312;14.226;2023-06-14T09:15:47;21.30;99.90
75442;DHT22;64019;48.312;14.226;2023-06-14T09:18:13;21.30;99.90
75442;DHT22;64019;48.312;14.226;2023-06-14T09:20:41;21.40;99.90
75442;DHT22;64019;48.312;14.226;2023-06-14T09:23:07;21.40;99.90
75442;DHT22;64019;48.312;14.226;2023-06-14T09:25:41;21.70;99.90
75442;DHT22;64019;48.312;14.226;2023-06-14T09:28:07;21.90;99.90
75442;DHT22;64019;48.312;14.226;2023-06-14T09:30:34;22.00;99.90
75442;DHT22;64019;48.312;14.226;2023-06-14T09:33:00;22.00;99.90
75442;DHT22;64019;48.312;14.226;2023-06-14T09:35:25;21.80;99.90
75442;DHT22;64019;48.312;14.226;2023-06-14T09:37:56;21.90;99.90
75442;DHT22;64019;48.312;14.226;2023-06-14T09:40:26;21.70;99.90
75442;DHT22;64019;48.312;14.226;2023-06-14T09:42:52;22.00;99.90
75442;DHT22;64019;48.312;14.226;2023-06-14T09:45:19;21.80;99.90
75442;DHT22;64019;48.312;14.226;2023-06-14T09:47:49;22.00;99.90
75442;DHT22;64019;48.312;14.226;2023-06-14T09:50:15;21.80;99.90
75442;DHT22;64019;48.312;14.226;2023-06-14T09:52:43;21.60;99.90
75442;DHT22;64019;48.312;14.226;2023-06-14T09:55:16;21.80;99.90
75442;DHT22;64019;48.312;14.226;2023-06-14T09:57:45;21.90;99.90
75442;DHT22;64019;48.312;14.226;2023-06-14T10:00:13;22.10;99.90
75442;DHT22;64019;48.312;14.226;2023-06-14T10:02:42;22.30;99.90
75442;DHT22;64019;48.312;14.226;2023-06-14T10:05:15;22.20;99.90
75442;DHT22;64019;48.312;14.226;2023-06-14T10:07:48;22.20;99.90
75442;DHT22;64019;48.312;14.226;2023-06-14T10:10:16;22.30;99.90
75442;DHT22;64019;48.312;14.226;2023-06-14T10:12:43;22.50;99.90
75442;DHT22;64019;48.312;14.226;2023-06-14T10:15:15;22.80;99.90
75442;DHT22;64019;48.312;14.226;2023-06-14T10:17:54;22.90;99.90
75442;DHT22;64019;48.312;14.226;2023-06-14T10:20:45;22.90;99.90
75442;DHT22;64019;48.312;14.226;2023-06-14T10:23:19;22.70;99.90
75442;DHT22;64019;48.312;14.226;2023-06-14T10:25:50;23.00;99.90
75442;DHT22;64019;48.312;14.226;2023-06-14T10:28:17;23.50;99.90
75442;DHT22;64019;48.312;14.226;2023-06-14T10:31:17;23.60;99.90
75442;DHT22;64019;48.312;14.226;2023-06-14T10:33:50;23.50;99.90
75442;DHT22;64019;48.312;14.226;2023-06-14T10:36:25;23.60;99.90
75442;DHT22;64019;48.312;14.226;2023-06-14T10:39:17;23.60;99.90
75442;DHT22;64019;48.312;14.226;2023-06-14T10:41:54;23.40;99.90
75442;DHT22;64019;48.312;14.226;2023-06-14T10:47:28;23.50;99.90
75442;DHT22;64019;48.312;14.226;2023-06-14T10:50:12;23.60;99.90
75442;DHT22;64019;48.312;14.226;2023-06-14T10:52:41;23.40;99.90
75442;DHT22;64019;48.312;14.226;2023-06-14T10:55:10;23.40;99.90
75442;DHT22;64019;48.312;14.226;2023-06-14T10:57:39;23.20;99.90
75442;DHT22;64019;48.312;14.226;2023-06-14T11:00:06;23.00;99.90
75442;DHT22;64019;48.312;14.226;2023-06-14T11:05:27;23.00;99.90
75442;DHT22;64019;48.312;14.226;2023-06-14T11:10:39;22.20;99.90
75442;DHT22;64019;48.312;14.226;2023-06-14T11:13:07;22.20;99.90
75442;DHT22;64019;48.312;14.226;2023-06-14T11:15:35;22.00;99.90
75442;DHT22;64019;48.312;14.226;2023-06-14T11:18:07;21.90;99.90
75442;DHT22;64019;48.312;14.226;2023-06-14T11:20:36;21.90;99.90
75442;DHT22;64019;48.312;14.226;2023-06-14T11:23:03;22.00;99.90
75442;DHT22;64019;48.312;14.226;2023-06-14T11:25:29;22.10;99.90
75442;DHT22;64019;48.312;14.226;2023-06-14T11:27:54;22.00;99.90
75442;DHT22;64019;48.312;14.226;2023-06-14T11:30:21;22.00;99.90
75442;DHT22;64019;48.312;14.226;2023-06-14T11:32:47;21.90;99.90
75442;DHT22;64019;48.312;14.226;2023-06-14T11:35:13;22.00;99.90
75442;DHT22;64019;48.312;14.226;2023-06-14T11:37:39;22.10;99.90
75442;DHT22;64019;48.312;14.226;2023-06-14T11:40:08;22.10;99.90
75442;DHT22;64019;48.312;14.226;2023-06-14T11:42:37;22.20;99.90
75442;DHT22;64019;48.312;14.226;2023-06-14T11:45:04;22.30;99.90
75442;DHT22;64019;48.312;14.226;2023-06-14T11:47:32;22.50;99.90
75442;DHT22;64019;48.312;14.226;2023-06-14T11:50:00;22.30;99.90
75442;DHT22;64019;48.312;14.226;2023-06-14T11:52:25;22.20;99.90
75442;DHT22;64019;48.312;14.226;2023-06-14T11:54:52;22.20;99.90
75442;DHT22;64019;48.312;14.226;2023-06-14T11:57:18;22.10;99.90
75442;DHT22;64019;48.312;14.226;2023-06-14T11:59:46;21.70;99.90
75442;DHT22;64019;48.312;14.226;2023-06-14T12:02:16;21.50;99.90
75442;DHT22;64019;48.312;14.226;2023-06-14T12:04:44;21.20;99.90
75442;DHT22;64019;48.312;14.226;2023-06-14T12:07:17;21.10;99.90
75442;DHT22;64019;48.312;14.226;2023-06-14T12:12:24;21.10;99.90
75442;DHT22;64019;48.312;14.226;2023-06-14T12:14:54;21.00;99.90
75442;DHT22;64019;48.312;14.226;2023-06-14T12:17:32;20.90;99.90
75442;DHT22;64019;48.312;14.226;2023-06-14T12:19:58;21.00;99.90
75442;DHT22;64019;48.312;14.226;2023-06-14T12:22:24;21.00;99.90
75442;DHT22;64019;48.312;14.226;2023-06-14T12:24:51;21.00;99.90
75442;DHT22;64019;48.312;14.226;2023-06-14T12:27:18;20.90;99.90
75442;DHT22;64019;48.312;14.226;2023-06-14T12:29:59;21.00;99.90
75442;DHT22;64019;48.312;14.226;2023-06-14T12:32:25;21.00;99.90
75442;DHT22;64019;48.312;14.226;2023-06-14T12:34:50;20.90;99.90
75442;DHT22;64019;48.312;14.226;2023-06-14T12:37:16;21.10;99.90
75442;DHT22;64019;48.312;14.226;2023-06-14T12:39:43;21.30;99.90
75442;DHT22;64019;48.312;14.226;2023-06-14T12:42:16;21.40;99.90
75442;DHT22;64019;48.312;14.226;2023-06-14T12:44:44;21.50;99.90
75442;DHT22;64019;48.312;14.226;2023-06-14T12:47:09;21.50;99.90
75442;DHT22;64019;48.312;14.226;2023-06-14T12:49:35;21.50;99.90
75442;DHT22;64019;48.312;14.226;2023-06-14T12:52:02;21.40;99.90
75442;DHT22;64019;48.312;14.226;2023-06-14T12:54:28;21.20;99.90
75442;DHT22;64019;48.312;14.226;2023-06-14T12:56:55;21.00;99.90
75442;DHT22;64019;48.312;14.226;2023-06-14T12:59:21;20.80;99.90
75442;DHT22;64019;48.312;14.226;2023-06-14T13:01:47;21.00;99.90
75442;DHT22;64019;48.312;14.226;2023-06-14T13:04:16;21.00;99.90
75442;DHT22;64019;48.312;14.226;2023-06-14T13:06:42;21.10;99.90
75442;DHT22;64019;48.312;14.226;2023-06-14T13:09:09;21.10;99.90
75442;DHT22;64019;48.312;14.226;2023-06-14T13:11:34;21.20;99.90
75442;DHT22;64019;48.312;14.226;2023-06-14T13:14:00;21.00;99.90
75442;DHT22;64019;48.312;14.226;2023-06-14T13:16:26;21.00;99.90
75442;DHT22;64019;48.312;14.226;2023-06-14T13:18:53;20.60;99.90
75442;DHT22;64019;48.312;14.226;2023-06-14T13:21:19;20.30;99.90
75442;DHT22;64019;48.312;14.226;2023-06-14T13:23:45;20.20;99.90
75442;DHT22;64019;48.312;14.226;2023-06-14T13:26:11;20.30;99.90
75442;DHT22;64019;48.312;14.226;2023-06-14T13:28:37;20.70;99.90
75442;DHT22;64019;48.312;14.226;2023-06-14T13:31:03;20.60;99.90
75442;DHT22;64019;48.312;14.226;2023-06-14T13:33:29;20.60;99.90
75442;DHT22;64019;48.312;14.226;2023-06-14T13:35:54;20.70;99.90
75442;DHT22;64019;48.312;14.226;2023-06-14T13:38:20;20.90;99.90
75442;DHT22;64019;48.312;14.226;2023-06-14T13:40:46;20.90;99.90
75442;DHT22;64019;48.312;14.226;2023-06-14T13:43:12;21.00;99.90
75442;DHT22;64019;48.312;14.226;2023-06-14T13:45:37;21.10;99.90
75442;DHT22;64019;48.312;14.226;2023-06-14T13:48:03;21.10;99.90
75442;DHT22;64019;48.312;14.226;2023-06-14T13:50:29;21.30;99.90
75442;DHT22;64019;48.312;14.226;2023-06-14T13:52:57;21.40;99.90
75442;DHT22;64019;48.312;14.226;2023-06-14T13:55:22;21.40;99.90
75442;DHT22;64019;48.312;14.226;2023-06-14T13:57:48;21.60;99.90
75442;DHT22;64019;48.312;14.226;2023-06-14T14:00:14;21.80;99.90
75442;DHT22;64019;48.312;14.226;2023-06-14T14:02:40;22.10;99.90
75442;DHT22;64019;48.312;14.226;2023-06-14T14:05:06;22.40;99.90
75442;DHT22;64019;48.312;14.226;2023-06-14T14:07:32;22.80;99.90
75442;DHT22;64019;48.312;14.226;2023-06-14T14:09:57;23.10;99.90
75442;DHT22;64019;48.312;14.226;2023-06-14T14:12:23;23.20;99.90
75442;DHT22;64019;48.312;14.226;2023-06-14T14:14:50;23.70;99.90
75442;DHT22;64019;48.312;14.226;2023-06-14T14:17:17;23.60;99.90
75442;DHT22;64019;48.312;14.226;2023-06-14T14:19:44;23.60;99.90
75442;DHT22;64019;48.312;14.226;2023-06-14T14:22:17;23.70;99.90
75442;DHT22;64019;48.312;14.226;2023-06-14T14:24:42;24.00;99.90
75442;DHT22;64019;48.312;14.226;2023-06-14T14:27:09;24.00;99.90
75442;DHT22;64019;48.312;14.226;2023-06-14T14:29:35;23.90;99.90
75442;DHT22;64019;48.312;14.226;2023-06-14T14:32:01;23.90;99.90
75442;DHT22;64019;48.312;14.226;2023-06-14T14:34:27;23.80;99.90
75442;DHT22;64019;48.312;14.226;2023-06-14T14:36:53;24.00;99.90
75442;DHT22;64019;48.312;14.226;2023-06-14T14:39:19;23.90;99.90
75442;DHT22;64019;48.312;14.226;2023-06-14T14:41:44;23.80;99.90
75442;DHT22;64019;48.312;14.226;2023-06-14T14:44:10;24.00;99.90
75442;DHT22;64019;48.312;14.226;2023-06-14T14:46:37;24.00;99.90
75442;DHT22;64019;48.312;14.226;2023-06-14T14:49:03;23.80;99.90
75442;DHT22;64019;48.312;14.226;2023-06-14T14:51:29;23.60;99.90
75442;DHT22;64019;48.312;14.226;2023-06-14T14:53:54;23.60;99.90
75442;DHT22;64019;48.312;14.226;2023-06-14T14:56:22;23.60;99.90
75442;DHT22;64019;48.312;14.226;2023-06-14T14:58:48;23.70;99.90
75442;DHT22;64019;48.312;14.226;2023-06-14T15:01:15;23.70;99.30
75442;DHT22;64019;48.312;14.226;2023-06-14T15:03:40;23.70;98.80
75442;DHT22;64019;48.312;14.226;2023-06-14T15:06:06;23.70;99.10
75442;DHT22;64019;48.312;14.226;2023-06-14T15:08:32;23.50;99.90
75442;DHT22;64019;48.312;14.226;2023-06-14T15:10:57;23.60;99.90
75442;DHT22;64019;48.312;14.226;2023-06-14T15:13:23;23.60;99.90
75442;DHT22;64019;48.312;14.226;2023-06-14T15:15:50;23.50;99.90
75442;DHT22;64019;48.312;14.226;2023-06-14T15:18:25;23.40;99.90
75442;DHT22;64019;48.312;14.226;2023-06-14T15:20:51;23.50;99.90
75442;DHT22;64019;48.312;14.226;2023-06-14T15:23:17;23.60;99.90
75442;DHT22;64019;48.312;14.226;2023-06-14T15:25:46;23.70;99.90
75442;DHT22;64019;48.312;14.226;2023-06-14T15:28:18;23.90;98.80
75442;DHT22;64019;48.312;14.226;2023-06-14T15:30:44;23.80;99.40
75442;DHT22;64019;48.312;14.226;2023-06-14T15:33:10;23.70;98.10
75442;DHT22;64019;48.312;14.226;2023-06-14T15:35:35;23.80;97.40
75442;DHT22;64019;48.312;14.226;2023-06-14T15:38:02;23.90;97.70
75442;DHT22;64019;48.312;14.226;2023-06-14T15:40:28;23.80;98.30
75442;DHT22;64019;48.312;14.226;2023-06-14T15:43:01;23.90;99.90
75442;DHT22;64019;48.312;14.226;2023-06-14T15:45:27;23.70;97.30
75442;DHT22;64019;48.312;14.226;2023-06-14T15:47:52;23.80;97.10
75442;DHT22;64019;48.312;14.226;2023-06-14T15:50:18;23.70;99.60
75442;DHT22;64019;48.312;14.226;2023-06-14T15:52:44;23.80;99.90
75442;DHT22;64019;48.312;14.226;2023-06-14T15:55:10;23.90;99.90
75442;DHT22;64019;48.312;14.226;2023-06-14T15:57:35;24.20;99.60
75442;DHT22;64019;48.312;14.226;2023-06-14T16:00:01;24.50;97.30
75442;DHT22;64019;48.312;14.226;2023-06-14T16:02:29;24.70;96.60
75442;DHT22;64019;48.312;14.226;2023-06-14T16:04:54;24.50;96.30
75442;DHT22;64019;48.312;14.226;2023-06-14T16:07:22;24.60;96.10
75442;DHT22;64019;48.312;14.226;2023-06-14T16:09:48;24.60;95.00